Time,TemperatureF,DewpointF,PressureIn,WindDirection,WindDirectionDegrees,WindSpeedMPH,WindSpeedGustMPH,Humidity,HourlyPrecipIn,Conditions,Clouds,dailyrainin,SolarRadiationWatts/m^2,SoftwareType,DateUTC
2013-04-25 00:00:00,70.4,67.3,30.14,NE,46,0.3,2.3,90,0.00,,,0.00,0.0,WeatherDisplay:10.37,2013-04-25 04:00:00,
2013-04-25 00:01:00,70.4,67.3,30.14,NE,46,0.2,2.3,90,0.00,,,0.00,0.0,WeatherDisplay:10.37,2013-04-25 04:01:00,
2013-04-25 00:02:00,70.3,67.2,30.14,NE,46,0.0,0.0,90,0.00,,,0.00,0.0,WeatherDisplay:10.37,2013-04-25 04:02:00,
2013-04-25 00:07:00,70.2,67.4,30.14,NE,49,0.3,2.3,91,0.00,,,0.00,0.0,WeatherDisplay:10.37,2013-04-25 04:07:00,
2013-04-25 00:12:00,70.2,67.4,30.14,NE,34,0.2,1.0,91,0.00,,,0.00,0.0,WeatherDisplay:10.37,2013-04-25 04:12:00,
2013-04-25 00:17:00,70.3,67.5,30.14,ENE,74,0.0,0.0,91,0.00,,,0.00,0.0,WeatherDisplay:10.37,2013-04-25 04:17:00,
2013-04-25 00:22:00,70.1,67.3,30.13,ENE,74,0.0,0.0,91,0.00,,,0.00,0.0,WeatherDisplay:10.37,2013-04-25 04:22:00,
2013-04-25 00:27:00,69.8,67.4,30.13,ENE,74,0.1,1.0,92,0.00,,,0.00,0.0,WeatherDisplay:10.37,2013-04-25 04:27:00,
2013-04-25 00:32:00,69.8,67.1,30.13,ENE,74,0.0,0.0,91,0.00,,,0.00,0.0,WeatherDisplay:10.37,2013-04-25 04:32:00,
2013-04-25 00:37:00,69.6,66.9,30.13,ENE,74,0.0,0.0,91,0.00,,,0.00,0.0,WeatherDisplay:10.37,2013-04-25 04:37:00,
2013-04-25 00:42:00,69.4,67.0,30.13,ENE,74,0.0,0.0,92,0.00,,,0.00,0.0,WeatherDisplay:10.37,2013-04-25 04:42:00,
2013-04-25 00:47:00,69.1,66.7,30.13,ENE,74,0.0,0.0,92,0.00,,,0.00,0.0,WeatherDisplay:10.37,2013-04-25 04:47:00,
2013-04-25 00:52:00,68.9,66.8,30.12,ENE,74,0.0,0.0,93,0.00,,,0.00,0.0,WeatherDisplay:10.37,2013-04-25 04:52:00,
2013-04-25 00:57:00,68.8,66.4,30.13,ENE,74,0.0,0.0,92,0.00,,,0.00,0.0,WeatherDisplay:10.37,2013-04-25 04:57:00,
2013-04-25 01:02:00,68.7,66.3,30.12,ENE,74,0.0,0.0,92,0.00,,,0.00,0.0,WeatherDisplay:10.37,2013-04-25 05:02:00,
2013-04-25 01:07:00,68.4,66.0,30.12,ENE,74,0.0,0.0,92,0.00,,,0.00,0.0,WeatherDisplay:10.37,2013-04-25 05:07:00,
2013-04-25 01:12:00,68.3,66.2,30.12,ENE,74,0.0,0.0,93,0.00,,,0.00,0.0,WeatherDisplay:10.37,2013-04-25 05:12:00,
2013-04-25 01:17:00,68.3,66.2,30.12,ENE,74,0.0,0.0,93,0.00,,,0.00,0.0,WeatherDisplay:10.37,2013-04-25 05:17:00,
2013-04-25 01:22:00,68.1,66.0,30.12,ENE,74,0.2,1.2,93,0.00,,,0.00,0.0,WeatherDisplay:10.37,2013-04-25 05:22:00,
2013-04-25 01:27:00,68.3,65.9,30.12,ENE,74,0.0,0.0,92,0.00,,,0.00,0.0,WeatherDisplay:10.37,2013-04-25 05:27:00,
2013-04-25 01:32:00,68.5,66.1,30.12,ENE,74,0.0,0.0,92,0.00,,,0.00,0.0,WeatherDisplay:10.37,2013-04-25 05:32:00,
2013-04-25 01:37:00,68.4,65.7,30.12,ENE,74,0.1,0.0,91,0.00,,,0.00,0.0,WeatherDisplay:10.37,2013-04-25 05:37:00,
2013-04-25 01:42:00,68.9,66.2,30.12,ENE,74,0.0,0.0,91,0.00,,,0.00,0.0,WeatherDisplay:10.37,2013-04-25 05:42:00,
2013-04-25 01:47:00,68.7,66.0,30.12,ENE,74,0.0,0.0,91,0.00,,,0.00,0.0,WeatherDisplay:10.37,2013-04-25 05:47:00,
2013-04-25 01:52:00,68.4,65.7,30.12,ENE,74,0.0,0.0,91,0.00,,,0.00,0.0,WeatherDisplay:10.37,2013-04-25 05:52:00,
2013-04-25 01:57:00,68.1,65.7,30.12,ENE,74,0.0,0.0,92,0.00,,,0.00,0.0,WeatherDisplay:10.37,2013-04-25 05:57:00,
2013-04-25 02:02:00,67.9,65.5,30.12,ENE,74,0.0,0.0,92,0.00,,,0.00,0.0,WeatherDisplay:10.37,2013-04-25 06:02:00,
2013-04-25 02:07:00,67.8,65.7,30.12,ENE,74,0.0,0.0,93,0.00,,,0.00,0.0,WeatherDisplay:10.37,2013-04-25 06:07:00,
2013-04-25 02:12:00,67.9,65.8,30.12,ENE,74,0.0,0.0,93,0.00,,,0.00,0.0,WeatherDisplay:10.37,2013-04-25 06:12:00,
2013-04-25 02:17:00,67.9,65.8,30.12,ENE,74,0.0,0.0,93,0.00,,,0.00,0.0,WeatherDisplay:10.37,2013-04-25 06:17:00,
2013-04-25 02:22:00,67.9,65.5,30.12,ENE,74,0.0,0.0,92,0.00,,,0.00,0.0,WeatherDisplay:10.37,2013-04-25 06:22:00,
2013-04-25 02:27:00,68.2,65.8,30.12,ENE,74,0.0,0.0,92,0.00,,,0.00,0.0,WeatherDisplay:10.37,2013-04-25 06:27:00,
2013-04-25 02:32:00,68.4,65.4,30.12,ENE,74,0.0,0.0,90,0.00,,,0.00,0.0,WeatherDisplay:10.37,2013-04-25 06:32:00,
2013-04-25 02:37:00,68.1,65.4,30.12,ENE,74,0.0,0.0,91,0.00,,,0.00,0.0,WeatherDisplay:10.37,2013-04-25 06:37:00,
2013-04-25 02:42:00,67.8,65.1,30.12,ENE,74,0.0,0.0,91,0.00,,,0.00,0.0,WeatherDisplay:10.37,2013-04-25 06:42:00,
2013-04-25 02:47:00,67.5,65.1,30.12,ENE,74,0.0,0.0,92,0.00,,,0.00,0.0,WeatherDisplay:10.37,2013-04-25 06:47:00,
2013-04-25 02:52:00,67.3,64.9,30.12,ENE,74,0.0,0.0,92,0.00,,,0.00,0.0,WeatherDisplay:10.37,2013-04-25 06:52:00,
2013-04-25 02:57:00,67.3,64.9,30.12,ENE,74,0.0,0.0,92,0.00,,,0.00,0.0,WeatherDisplay:10.37,2013-04-25 06:57:00,
2013-04-25 03:02:00,67.1,65.0,30.12,ENE,74,0.0,0.0,93,0.00,,,0.00,0.0,WeatherDisplay:10.37,2013-04-25 07:02:00,
2013-04-25 03:07:00,67.0,64.9,30.12,ENE,74,0.0,0.0,93,0.00,,,0.00,0.0,WeatherDisplay:10.37,2013-04-25 07:07:00,
2013-04-25 03:12:00,66.9,64.8,30.12,ENE,74,0.0,0.0,93,0.00,,,0.00,0.0,WeatherDisplay:10.37,2013-04-25 07:12:00,
2013-04-25 03:17:00,66.8,64.7,30.12,ENE,74,0.0,0.0,93,0.00,,,0.00,0.0,WeatherDisplay:10.37,2013-04-25 07:17:00,
2013-04-25 03:22:00,66.6,64.5,30.12,ENE,74,0.0,0.0,93,0.00,,,0.00,0.0,WeatherDisplay:10.37,2013-04-25 07:22:00,
2013-04-25 03:27:00,66.4,64.6,30.12,ENE,74,0.0,0.0,94,0.00,,,0.00,0.0,WeatherDisplay:10.37,2013-04-25 07:27:00,
2013-04-25 03:32:00,66.4,64.6,30.12,ENE,74,0.0,0.0,94,0.00,,,0.00,0.0,WeatherDisplay:10.37,2013-04-25 07:32:00,
2013-04-25 03:37:00,66.2,64.4,30.12,ENE,74,0.0,0.0,94,0.00,,,0.00,0.0,WeatherDisplay:10.37,2013-04-25 07:37:00,
2013-04-25 03:42:00,66.1,64.3,30.12,ENE,74,0.0,0.0,94,0.00,,,0.00,0.0,WeatherDisplay:10.37,2013-04-25 07:42:00,
2013-04-25 03:47:00,66.1,64.6,30.12,ENE,74,0.0,0.0,95,0.00,,,0.00,0.0,WeatherDisplay:10.37,2013-04-25 07:47:00,
2013-04-25 03:52:00,66.3,64.5,30.12,ENE,74,0.0,0.0,94,0.00,,,0.00,0.0,WeatherDisplay:10.37,2013-04-25 07:52:00,
2013-04-25 03:57:00,66.3,64.5,30.12,ENE,74,0.0,0.0,94,0.00,,,0.00,0.0,WeatherDisplay:10.37,2013-04-25 07:57:00,
2013-04-25 04:02:00,66.3,64.5,30.12,ENE,74,0.0,0.0,94,0.00,,,0.00,0.0,WeatherDisplay:10.37,2013-04-25 08:02:00,
2013-04-25 04:07:00,66.1,64.3,30.12,ENE,74,0.0,0.0,94,0.00,,,0.00,0.0,WeatherDisplay:10.37,2013-04-25 08:07:00,
2013-04-25 04:12:00,66.0,64.5,30.12,ENE,74,0.0,0.0,95,0.00,,,0.00,0.0,WeatherDisplay:10.37,2013-04-25 08:12:00,
2013-04-25 04:17:00,65.9,64.4,30.13,ENE,74,0.0,0.0,95,0.00,,,0.00,0.0,WeatherDisplay:10.37,2013-04-25 08:17:00,
2013-04-25 04:22:00,65.9,64.4,30.13,ENE,74,0.0,0.0,95,0.00,,,0.00,0.0,WeatherDisplay:10.37,2013-04-25 08:22:00,
2013-04-25 04:27:00,65.9,64.4,30.13,ENE,74,0.0,0.0,95,0.00,,,0.00,0.0,WeatherDisplay:10.37,2013-04-25 08:27:00,
2013-04-25 04:32:00,65.6,64.1,30.12,ENE,74,0.0,0.0,95,0.00,,,0.00,0.0,WeatherDisplay:10.37,2013-04-25 08:32:00,
2013-04-25 04:37:00,65.4,63.9,30.12,ENE,74,0.0,0.0,95,0.00,,,0.00,0.0,WeatherDisplay:10.37,2013-04-25 08:37:00,
2013-04-25 04:42:00,65.3,64.1,30.13,ENE,74,0.0,0.0,96,0.00,,,0.00,0.0,WeatherDisplay:10.37,2013-04-25 08:42:00,
2013-04-25 04:47:00,65.4,64.2,30.13,ENE,74,0.0,0.0,96,0.00,,,0.00,0.0,WeatherDisplay:10.37,2013-04-25 08:47:00,
2013-04-25 04:52:00,65.2,64.0,30.13,ENE,74,0.0,0.0,96,0.00,,,0.00,0.0,WeatherDisplay:10.37,2013-04-25 08:52:00,
2013-04-25 04:58:00,65.3,64.1,30.13,ENE,74,0.0,0.0,96,0.00,,,0.00,0.0,WeatherDisplay:10.37,2013-04-25 08:58:00,
2013-04-25 05:03:00,65.4,64.2,30.13,ENE,74,0.0,0.0,96,0.00,,,0.00,0.0,WeatherDisplay:10.37,2013-04-25 09:03:00,
2013-04-25 05:08:00,65.4,64.2,30.14,ENE,74,0.0,0.0,96,0.00,,,0.00,0.0,WeatherDisplay:10.37,2013-04-25 09:08:00,
2013-04-25 05:13:00,65.2,64.0,30.14,ENE,74,0.0,0.0,96,0.00,,,0.00,0.0,WeatherDisplay:10.37,2013-04-25 09:13:00,
2013-04-25 05:18:00,65.0,63.8,30.13,ENE,74,0.0,0.0,96,0.00,,,0.00,0.0,WeatherDisplay:10.37,2013-04-25 09:18:00,
2013-04-25 05:23:00,65.0,63.8,30.13,ENE,74,0.0,0.0,96,0.00,,,0.00,0.0,WeatherDisplay:10.37,2013-04-25 09:23:00,
2013-04-25 05:28:00,64.9,63.7,30.14,ENE,74,0.0,0.0,96,0.00,,,0.00,0.0,WeatherDisplay:10.37,2013-04-25 09:28:00,
2013-04-25 05:33:00,64.9,63.7,30.14,ENE,74,0.0,0.0,96,0.00,,,0.00,0.0,WeatherDisplay:10.37,2013-04-25 09:33:00,
2013-04-25 05:38:00,64.9,63.7,30.14,ENE,74,0.0,0.0,96,0.00,,,0.00,0.0,WeatherDisplay:10.37,2013-04-25 09:38:00,
2013-04-25 05:43:00,64.7,63.5,30.14,ENE,74,0.0,0.0,96,0.00,,,0.00,0.0,WeatherDisplay:10.37,2013-04-25 09:43:00,
2013-04-25 05:48:00,64.8,63.9,30.14,ENE,74,0.0,0.0,97,0.00,,,0.00,0.0,WeatherDisplay:10.37,2013-04-25 09:48:00,
2013-04-25 05:53:00,64.8,63.9,30.14,ENE,74,0.0,0.0,97,0.00,,,0.00,0.0,WeatherDisplay:10.37,2013-04-25 09:53:00,
2013-04-25 05:58:00,64.7,63.8,30.14,ENE,74,0.0,0.0,97,0.00,,,0.00,0.0,WeatherDisplay:10.37,2013-04-25 09:58:00,
2013-04-25 06:03:00,64.6,63.7,30.14,ENE,74,0.0,0.0,97,0.00,,,0.00,0.0,WeatherDisplay:10.37,2013-04-25 10:03:00,
2013-04-25 06:08:00,64.4,63.5,30.14,ENE,74,0.0,0.0,97,0.00,,,0.00,0.0,WeatherDisplay:10.37,2013-04-25 10:08:00,
2013-04-25 06:13:00,64.4,63.5,30.14,ENE,74,0.0,0.0,97,0.00,,,0.00,0.0,WeatherDisplay:10.37,2013-04-25 10:13:00,
2013-04-25 06:18:00,64.3,63.4,30.14,ENE,74,0.0,0.0,97,0.00,,,0.00,0.0,WeatherDisplay:10.37,2013-04-25 10:18:00,
2013-04-25 06:23:00,64.3,63.4,30.15,ENE,74,0.0,0.0,97,0.00,,,0.00,0.0,WeatherDisplay:10.37,2013-04-25 10:23:00,
2013-04-25 06:28:00,64.2,63.3,30.15,ENE,74,0.0,0.0,97,0.00,,,0.00,0.0,WeatherDisplay:10.37,2013-04-25 10:28:00,
2013-04-25 06:33:00,64.1,63.2,30.15,ENE,74,0.0,0.0,97,0.00,,,0.00,0.0,WeatherDisplay:10.37,2013-04-25 10:33:00,
2013-04-25 06:38:00,64.1,63.5,30.15,ENE,74,0.0,0.0,98,0.00,,,0.00,0.0,WeatherDisplay:10.37,2013-04-25 10:38:00,
2013-04-25 06:43:00,64.2,63.6,30.15,ENE,74,0.0,0.0,98,0.00,,,0.00,0.0,WeatherDisplay:10.37,2013-04-25 10:43:00,
2013-04-25 06:48:00,64.2,63.6,30.15,ENE,74,0.0,0.0,98,0.00,,,0.00,0.0,WeatherDisplay:10.37,2013-04-25 10:48:00,
2013-04-25 06:53:00,64.1,63.5,30.15,ENE,74,0.0,0.0,98,0.00,,,0.00,0.0,WeatherDisplay:10.37,2013-04-25 10:53:00,
2013-04-25 06:58:00,64.3,63.7,30.15,ENE,74,0.0,0.0,98,0.00,,,0.00,5.0,WeatherDisplay:10.37,2013-04-25 10:58:00,
2013-04-25 07:03:00,64.4,63.8,30.15,ENE,74,0.0,0.0,98,0.00,,,0.00,7.0,WeatherDisplay:10.37,2013-04-25 11:03:00,
2013-04-25 07:08:00,64.6,64.0,30.15,ENE,74,0.0,0.0,98,0.00,,,0.00,12.0,WeatherDisplay:10.37,2013-04-25 11:08:00,
2013-04-25 07:13:00,64.7,63.8,30.15,ENE,74,0.0,0.0,97,0.00,,,0.00,18.0,WeatherDisplay:10.37,2013-04-25 11:13:00,
2013-04-25 07:18:00,64.7,63.8,30.16,ENE,74,0.0,0.0,97,0.00,,,0.00,21.0,WeatherDisplay:10.37,2013-04-25 11:18:00,
2013-04-25 07:23:00,65.2,64.3,30.16,ENE,74,0.0,0.0,97,0.00,,,0.00,25.0,WeatherDisplay:10.37,2013-04-25 11:23:00,
2013-04-25 07:28:00,65.2,64.3,30.16,ENE,74,0.0,0.0,97,0.00,,,0.00,33.0,WeatherDisplay:10.37,2013-04-25 11:28:00,
2013-04-25 07:33:00,65.4,64.5,30.16,ENE,74,0.0,0.0,97,0.00,,,0.00,54.0,WeatherDisplay:10.37,2013-04-25 11:33:00,
2013-04-25 07:38:00,65.9,65.0,30.17,ENE,74,0.0,0.0,97,0.00,,,0.00,72.0,WeatherDisplay:10.37,2013-04-25 11:38:00,
2013-04-25 07:43:00,66.7,65.8,30.16,ENE,74,0.1,1.2,97,0.00,,,0.00,69.0,WeatherDisplay:10.37,2013-04-25 11:43:00,
2013-04-25 07:48:00,67.5,66.3,30.17,ENE,78,0.0,1.2,96,0.00,,,0.00,104.0,WeatherDisplay:10.37,2013-04-25 11:48:00,
2013-04-25 07:53:00,68.5,66.7,30.17,East,86,0.5,2.3,94,0.00,,,0.00,121.0,WeatherDisplay:10.37,2013-04-25 11:53:00,
2013-04-25 07:58:00,69.4,67.0,30.17,ESE,111,0.5,2.3,92,0.00,,,0.00,141.0,WeatherDisplay:10.37,2013-04-25 11:58:00,
2013-04-25 08:03:00,70.2,67.1,30.17,ESE,120,2.0,3.5,90,0.00,OVC,,0.00,149.0,WeatherDisplay:10.37,2013-04-25 12:03:00,
2013-04-25 08:08:00,70.8,67.4,30.17,SE,146,2.3,3.5,89,0.00,OVC,,0.00,158.0,WeatherDisplay:10.37,2013-04-25 12:08:00,
2013-04-25 08:13:00,71.3,67.6,30.17,SE,134,1.9,3.5,88,0.00,OVC,,0.00,195.0,WeatherDisplay:10.37,2013-04-25 12:13:00,
2013-04-25 08:18:00,71.8,67.4,30.17,South,170,3.4,4.6,86,0.00,OVC,,0.00,121.0,WeatherDisplay:10.37,2013-04-25 12:18:00,
2013-04-25 08:23:00,72.2,67.8,30.17,South,189,2.2,5.0,86,0.00,OVC,,0.00,237.0,WeatherDisplay:10.37,2013-04-25 12:23:00,
2013-04-25 08:28:00,72.6,67.5,30.17,SSW,198,1.5,3.5,84,0.00,OVC,,0.00,260.0,WeatherDisplay:10.37,2013-04-25 12:28:00,
2013-04-25 08:33:00,73.0,67.5,30.18,South,191,1.6,3.5,83,0.00,OVC,,0.00,285.0,WeatherDisplay:10.37,2013-04-25 12:33:00,
2013-04-25 08:38:00,73.2,67.4,30.18,South,172,3.5,5.0,82,0.00,OVC,,0.00,221.0,WeatherDisplay:10.37,2013-04-25 12:38:00,
2013-04-25 08:43:00,73.3,67.5,30.18,SE,138,1.7,4.6,82,0.00,OVC,,0.00,283.0,WeatherDisplay:10.37,2013-04-25 12:43:00,
2013-04-25 08:48:00,73.5,67.3,30.18,SSE,149,2.7,5.0,81,0.00,OVC,,0.00,290.0,WeatherDisplay:10.37,2013-04-25 12:48:00,
2013-04-25 08:53:00,73.9,67.7,30.18,SSW,206,2.1,3.5,81,0.00,OVC,,0.00,167.0,WeatherDisplay:10.37,2013-04-25 12:53:00,
2013-04-25 08:58:00,74.4,67.8,30.18,South,188,2.5,6.0,80,0.00,OVC,,0.00,371.0,WeatherDisplay:10.37,2013-04-25 12:58:00,
2013-04-25 09:03:00,74.6,66.9,30.18,South,190,4.0,4.6,77,0.00,OVC,,0.00,278.0,WeatherDisplay:10.37,2013-04-25 13:03:00,
2013-04-25 09:08:00,74.7,67.0,30.18,SE,140,3.5,4.6,77,0.00,OVC,,0.00,362.0,WeatherDisplay:10.37,2013-04-25 13:08:00,
2013-04-25 09:13:00,75.3,67.2,30.18,SE,146,1.6,3.5,76,0.00,OVC,,0.00,408.0,WeatherDisplay:10.37,2013-04-25 13:13:00,
2013-04-25 09:18:00,75.7,67.2,30.18,SSW,207,2.9,4.6,75,0.00,OVC,,0.00,445.0,WeatherDisplay:10.37,2013-04-25 13:18:00,
2013-04-25 09:23:00,76.6,67.7,30.18,SE,126,1.6,3.5,74,0.00,OVC,,0.00,468.0,WeatherDisplay:10.37,2013-04-25 13:23:00,
2013-04-25 09:28:00,76.3,67.0,30.18,SSE,154,1.5,3.5,73,0.00,OVC,,0.00,387.0,WeatherDisplay:10.37,2013-04-25 13:28:00,
2013-04-25 09:33:00,76.6,66.5,30.18,SE,133,4.6,5.8,71,0.00,OVC,,0.00,390.0,WeatherDisplay:10.37,2013-04-25 13:33:00,
2013-04-25 09:38:00,76.7,66.6,30.19,SE,136,3.6,5.8,71,0.00,OVC,,0.00,501.0,WeatherDisplay:10.37,2013-04-25 13:38:00,
2013-04-25 09:43:00,76.8,66.7,30.19,SSE,153,4.2,8.1,71,0.00,OVC,,0.00,519.0,WeatherDisplay:10.37,2013-04-25 13:43:00,
2013-04-25 09:48:00,77.0,66.5,30.18,SE,142,3.4,6.9,70,0.00,OVC,,0.00,536.0,WeatherDisplay:10.37,2013-04-25 13:48:00,
2013-04-25 09:53:00,78.0,67.4,30.19,SSW,209,4.7,8.1,70,0.00,OVC,,0.00,548.0,WeatherDisplay:10.37,2013-04-25 13:53:00,
2013-04-25 09:58:00,78.5,66.6,30.19,SSW,204,4.1,7.0,67,0.00,OVC,,0.00,563.0,WeatherDisplay:10.37,2013-04-25 13:58:00,
2013-04-25 10:03:00,78.7,66.8,30.19,SSE,158,3.6,6.9,67,0.00,OVC,,0.00,582.0,WeatherDisplay:10.37,2013-04-25 14:03:00,
2013-04-25 10:08:00,78.6,66.3,30.19,SSE,163,4.5,8.1,66,0.00,OVC,,0.00,605.0,WeatherDisplay:10.37,2013-04-25 14:08:00,
2013-04-25 10:13:00,78.6,66.3,30.19,SSW,197,3.0,6.9,66,0.00,OVC,,0.00,487.0,WeatherDisplay:10.37,2013-04-25 14:13:00,
2013-04-25 10:18:00,79.2,66.9,30.19,SE,141,2.1,3.5,66,0.00,OVC,,0.00,635.0,WeatherDisplay:10.37,2013-04-25 14:18:00,
2013-04-25 10:23:00,79.9,66.2,30.19,SSE,166,2.7,5.8,63,0.00,OVC,,0.00,666.0,WeatherDisplay:10.37,2013-04-25 14:23:00,
2013-04-25 10:28:00,79.7,66.0,30.19,South,171,2.1,3.5,63,0.00,OVC,,0.00,675.0,WeatherDisplay:10.37,2013-04-25 14:28:00,
2013-04-25 10:33:00,79.2,66.0,30.20,SE,131,3.7,5.8,64,0.00,OVC,,0.00,679.0,WeatherDisplay:10.37,2013-04-25 14:33:00,
2013-04-25 10:38:00,79.9,66.6,30.20,South,169,4.4,5.0,64,0.00,OVC,,0.00,694.0,WeatherDisplay:10.37,2013-04-25 14:38:00,
2013-04-25 10:43:00,80.0,65.8,30.20,ESE,121,4.7,8.1,62,0.00,OVC,,0.00,668.0,WeatherDisplay:10.37,2013-04-25 14:43:00,
2013-04-25 10:48:00,80.7,65.5,30.20,South,186,3.4,6.9,60,0.00,OVC,,0.00,722.0,WeatherDisplay:10.37,2013-04-25 14:48:00,
2013-04-25 10:53:00,81.2,66.5,30.21,SSE,156,6.8,9.2,61,0.00,OVC,,0.00,731.0,WeatherDisplay:10.37,2013-04-25 14:53:00,
2013-04-25 10:58:00,81.5,65.8,30.21,South,189,3.9,7.0,59,0.00,OVC,,0.00,747.0,WeatherDisplay:10.37,2013-04-25 14:58:00,
2013-04-25 11:03:00,81.7,64.5,30.21,SE,140,2.4,5.0,56,0.00,OVC,,0.00,761.0,WeatherDisplay:10.37,2013-04-25 15:03:00,
2013-04-25 11:08:00,81.0,65.8,30.21,SSW,211,1.8,3.5,60,0.00,OVC,,0.00,647.0,WeatherDisplay:10.37,2013-04-25 15:08:00,
2013-04-25 11:13:00,82.1,65.4,30.21,SSW,196,1.7,3.5,57,0.00,OVC,,0.00,789.0,WeatherDisplay:10.37,2013-04-25 15:13:00,
2013-04-25 11:18:00,82.1,65.9,30.21,West,275,0.1,1.2,58,0.00,OVC,,0.00,800.0,WeatherDisplay:10.37,2013-04-25 15:18:00,
2013-04-25 11:23:00,82.8,66.5,30.21,SSW,192,5.0,6.9,58,0.00,OVC,,0.00,809.0,WeatherDisplay:10.37,2013-04-25 15:23:00,
2013-04-25 11:28:00,82.5,65.7,30.21,WSW,251,1.7,3.5,57,0.00,OVC,,0.00,821.0,WeatherDisplay:10.37,2013-04-25 15:28:00,
2013-04-25 11:33:00,82.9,66.1,30.21,SSW,198,3.1,5.8,57,0.00,OVC,,0.00,833.0,WeatherDisplay:10.37,2013-04-25 15:33:00,
2013-04-25 11:38:00,82.9,66.1,30.21,WSW,254,0.3,2.3,57,0.00,OVC,,0.00,854.0,WeatherDisplay:10.37,2013-04-25 15:38:00,
2013-04-25 11:43:00,82.8,66.5,30.21,SW,223,3.1,4.6,58,0.00,OVC,,0.00,851.0,WeatherDisplay:10.37,2013-04-25 15:43:00,
2013-04-25 11:48:00,82.4,66.1,30.21,WSW,244,1.7,5.8,58,0.00,OVC,,0.00,861.0,WeatherDisplay:10.37,2013-04-25 15:48:00,
2013-04-25 11:53:00,82.8,66.5,30.22,WNW,285,2.8,3.5,58,0.00,OVC,,0.00,867.0,WeatherDisplay:10.37,2013-04-25 15:53:00,
2013-04-25 11:58:00,83.4,66.6,30.22,SSW,205,2.2,3.5,57,0.00,OVC,,0.00,856.0,WeatherDisplay:10.37,2013-04-25 15:58:00,
2013-04-25 12:03:00,84.3,66.9,30.22,West,271,4.3,8.1,56,0.00,OVC,,0.00,889.0,WeatherDisplay:10.37,2013-04-25 16:03:00,
2013-04-25 12:08:00,84.9,68.0,30.22,West,261,1.8,5.0,57,0.00,OVC,,0.00,902.0,WeatherDisplay:10.37,2013-04-25 16:08:00,
2013-04-25 12:13:00,84.1,66.7,30.22,WSW,252,4.3,8.1,56,0.00,OVC,,0.00,914.0,WeatherDisplay:10.37,2013-04-25 16:13:00,
2013-04-25 12:18:00,84.9,67.5,30.22,West,270,1.8,3.5,56,0.00,OVC,,0.00,928.0,WeatherDisplay:10.37,2013-04-25 16:18:00,
2013-04-25 12:23:00,83.4,67.1,30.22,WNW,285,1.6,3.5,58,0.00,OVC,,0.00,947.0,WeatherDisplay:10.37,2013-04-25 16:23:00,
2013-04-25 12:28:00,85.1,68.2,30.22,SSW,213,3.3,9.2,57,0.00,OVC,,0.00,967.0,WeatherDisplay:10.37,2013-04-25 16:28:00,
2013-04-25 12:33:00,84.7,67.3,30.21,SW,230,2.1,4.0,56,0.00,OVC,,0.00,976.0,WeatherDisplay:10.37,2013-04-25 16:33:00,
2013-04-25 12:38:00,85.6,68.1,30.21,South,191,5.0,6.9,56,0.00,OVC,,0.00,997.0,WeatherDisplay:10.37,2013-04-25 16:38:00,
2013-04-25 12:43:00,85.6,68.1,30.21,SSE,163,2.9,8.1,56,0.00,OVC,,0.00,1007.0,WeatherDisplay:10.37,2013-04-25 16:43:00,
2013-04-25 12:48:00,85.2,67.7,30.20,WSW,238,3.3,5.0,56,0.00,OVC,,0.00,932.0,WeatherDisplay:10.37,2013-04-25 16:48:00,
2013-04-25 12:53:00,84.8,67.4,30.21,West,280,4.4,9.2,56,0.00,OVC,,0.00,1053.0,WeatherDisplay:10.37,2013-04-25 16:53:00,
2013-04-25 12:58:00,83.7,67.4,30.21,West,269,6.2,10.4,58,0.00,OVC,,0.00,316.0,WeatherDisplay:10.37,2013-04-25 16:58:00,
2013-04-25 13:03:00,82.9,67.6,30.21,South,174,3.0,5.8,60,0.00,OVC,,0.00,192.0,WeatherDisplay:10.37,2013-04-25 17:03:00,
2013-04-25 13:08:00,82.1,66.8,30.21,SW,228,4.0,5.8,60,0.00,OVC,,0.00,323.0,WeatherDisplay:10.37,2013-04-25 17:08:00,
2013-04-25 13:13:00,83.0,68.2,30.21,WNW,285,4.6,5.0,61,0.00,OVC,,0.00,1007.0,WeatherDisplay:10.37,2013-04-25 17:13:00,
2013-04-25 13:18:00,84.0,68.1,30.21,SSE,161,3.0,5.8,59,0.00,OVC,,0.00,1000.0,WeatherDisplay:10.37,2013-04-25 17:18:00,
2013-04-25 13:23:00,84.8,67.9,30.20,South,191,3.5,6.0,57,0.00,OVC,,0.00,1035.0,WeatherDisplay:10.37,2013-04-25 17:23:00,
2013-04-25 13:28:00,85.2,68.2,30.20,SSW,194,4.3,6.0,57,0.00,OVC,,0.00,1041.0,WeatherDisplay:10.37,2013-04-25 17:28:00,
2013-04-25 13:33:00,84.2,67.3,30.20,SW,222,3.5,7.0,57,0.00,OVC,,0.00,394.0,WeatherDisplay:10.37,2013-04-25 17:33:00,
2013-04-25 13:38:00,84.3,67.9,30.20,SSW,197,4.2,8.0,58,0.00,OVC,,0.00,1018.0,WeatherDisplay:10.37,2013-04-25 17:38:00,
2013-04-25 13:43:00,84.3,67.4,30.20,SW,234,2.1,8.1,57,0.00,OVC,,0.00,995.0,WeatherDisplay:10.37,2013-04-25 17:43:00,
2013-04-25 13:48:00,84.5,67.1,30.20,SE,141,6.2,8.1,56,0.00,OVC,,0.00,979.0,WeatherDisplay:10.37,2013-04-25 17:48:00,
2013-04-25 13:53:00,84.5,67.6,30.20,West,278,4.4,6.9,57,0.00,OVC,,0.00,1032.0,WeatherDisplay:10.37,2013-04-25 17:53:00,
2013-04-25 13:58:00,83.8,67.4,30.20,WSW,258,3.1,6.9,58,0.00,OVC,,0.00,1014.0,WeatherDisplay:10.37,2013-04-25 17:58:00,
2013-04-25 14:03:00,83.8,67.9,30.20,WNW,292,1.3,5.8,59,0.00,OVC,,0.00,969.0,WeatherDisplay:10.37,2013-04-25 18:03:00,
2013-04-25 14:08:00,84.8,68.4,30.20,West,271,4.2,5.8,58,0.00,OVC,,0.00,998.0,WeatherDisplay:10.37,2013-04-25 18:08:00,
2013-04-25 14:13:00,85.4,67.9,30.20,South,172,4.9,7.0,56,0.00,OVC,,0.00,350.0,WeatherDisplay:10.37,2013-04-25 18:13:00,
2013-04-25 14:18:00,84.7,69.3,30.20,WSW,257,0.7,5.8,60,0.00,OVC,,0.00,1071.0,WeatherDisplay:10.37,2013-04-25 18:18:00,
2013-04-25 14:23:00,85.1,68.7,30.20,SW,236,4.4,5.8,58,0.00,OVC,,0.00,1011.0,WeatherDisplay:10.37,2013-04-25 18:23:00,
2013-04-25 14:28:00,86.0,69.5,30.19,West,265,4.3,7.0,58,0.00,OVC,,0.00,1046.0,WeatherDisplay:10.37,2013-04-25 18:28:00,
2013-04-25 14:33:00,85.2,69.3,30.19,West,269,3.0,4.0,59,0.00,OVC,,0.00,1014.0,WeatherDisplay:10.37,2013-04-25 18:33:00,
2013-04-25 14:38:00,85.0,69.6,30.20,WSW,242,4.2,8.1,60,0.00,OVC,,0.00,949.0,WeatherDisplay:10.37,2013-04-25 18:38:00,
2013-04-25 14:43:00,84.2,69.8,30.19,WSW,249,5.8,9.2,62,0.00,OVC,,0.00,937.0,WeatherDisplay:10.37,2013-04-25 18:43:00,
2013-04-25 14:49:00,84.8,70.8,30.19,South,182,2.5,4.6,63,0.00,OVC,,0.00,925.0,WeatherDisplay:10.37,2013-04-25 18:49:00,
2013-04-25 14:54:00,84.4,70.4,30.19,SW,219,4.6,8.1,63,0.00,OVC,,0.00,904.0,WeatherDisplay:10.37,2013-04-25 18:54:00,
2013-04-25 14:59:00,85.2,70.7,30.19,South,188,3.5,6.9,62,0.00,OVC,,0.00,888.0,WeatherDisplay:10.37,2013-04-25 18:59:00,
2013-04-25 15:04:00,84.9,69.9,30.19,WSW,246,6.4,6.4,61,0.00,OVC,,0.00,902.0,WeatherDisplay:10.37,2013-04-25 19:04:00,
2013-04-25 15:09:00,83.9,70.0,30.18,WSW,257,0.8,5.8,63,0.00,OVC,,0.00,898.0,WeatherDisplay:10.37,2013-04-25 19:09:00,
2013-04-25 15:14:00,84.1,69.7,30.18,NW,311,3.0,5.8,62,0.00,OVC,,0.00,902.0,WeatherDisplay:10.37,2013-04-25 19:14:00,
2013-04-25 15:19:00,84.7,71.2,30.18,West,276,1.9,4.6,64,0.00,OVC,,0.00,874.0,WeatherDisplay:10.37,2013-04-25 19:19:00,
2013-04-25 15:24:00,84.0,70.0,30.18,West,259,4.5,9.2,63,0.00,OVC,,0.00,671.0,WeatherDisplay:10.37,2013-04-25 19:24:00,
2013-04-25 15:29:00,84.0,70.0,30.17,SW,220,4.2,6.0,63,0.00,OVC,,0.00,392.0,WeatherDisplay:10.37,2013-04-25 19:29:00,
2013-04-25 15:34:00,84.2,71.2,30.17,SSW,199,1.6,6.9,65,0.00,OVC,,0.00,362.0,WeatherDisplay:10.37,2013-04-25 19:34:00,
2013-04-25 15:39:00,84.2,70.7,30.17,WNW,284,4.2,6.9,64,0.00,OVC,,0.00,411.0,WeatherDisplay:10.37,2013-04-25 19:39:00,
2013-04-25 15:44:00,83.0,70.5,30.17,NNW,327,3.4,3.5,66,0.00,OVC,,0.00,278.0,WeatherDisplay:10.37,2013-04-25 19:44:00,
2013-04-25 15:49:00,82.9,69.9,30.17,SW,228,4.2,6.9,65,0.00,OVC,,0.00,788.0,WeatherDisplay:10.37,2013-04-25 19:49:00,
2013-04-25 15:54:00,83.2,70.2,30.17,WSW,257,3.9,6.9,65,0.00,OVC,,0.00,394.0,WeatherDisplay:10.37,2013-04-25 19:54:00,
2013-04-25 15:59:00,82.6,69.6,30.16,WSW,244,1.1,3.5,65,0.00,OVC,,0.00,225.0,WeatherDisplay:10.37,2013-04-25 19:59:00,
2013-04-25 16:04:00,82.6,70.5,30.16,WSW,257,2.3,3.5,67,0.00,OVC,,0.00,749.0,WeatherDisplay:10.37,2013-04-25 20:04:00,
2013-04-25 16:09:00,84.1,70.6,30.16,NW,325,2.9,5.8,64,0.00,OVC,,0.00,714.0,WeatherDisplay:10.37,2013-04-25 20:09:00,
2013-04-25 16:14:00,84.0,70.5,30.16,SW,221,3.1,4.6,64,0.00,OVC,,0.00,701.0,WeatherDisplay:10.37,2013-04-25 20:14:00,
2013-04-25 16:19:00,84.7,70.2,30.16,WSW,252,2.4,4.6,62,0.00,OVC,,0.00,677.0,WeatherDisplay:10.37,2013-04-25 20:19:00,
2013-04-25 16:24:00,84.8,70.3,30.16,NNW,328,2.3,5.8,62,0.00,OVC,,0.00,675.0,WeatherDisplay:10.37,2013-04-25 20:24:00,
2013-04-25 16:29:00,84.1,69.7,30.16,West,264,3.6,6.9,62,0.00,OVC,,0.00,661.0,WeatherDisplay:10.37,2013-04-25 20:29:00,
2013-04-25 16:34:00,84.1,70.6,30.16,NW,311,4.4,6.9,64,0.00,OVC,,0.00,647.0,WeatherDisplay:10.37,2013-04-25 20:34:00,
2013-04-25 16:39:00,83.9,69.0,30.16,North,360,4.9,8.1,61,0.00,OVC,,0.00,631.0,WeatherDisplay:10.37,2013-04-25 20:39:00,
2013-04-25 16:44:00,83.9,69.0,30.16,SW,232,4.9,10.4,61,0.00,OVC,,0.00,608.0,WeatherDisplay:10.37,2013-04-25 20:44:00,
2013-04-25 16:49:00,83.9,69.0,30.16,SSE,153,0.4,3.5,61,0.00,OVC,,0.00,596.0,WeatherDisplay:10.37,2013-04-25 20:49:00,
2013-04-25 16:54:00,84.2,68.3,30.16,West,266,1.1,4.6,59,0.00,OVC,,0.00,575.0,WeatherDisplay:10.37,2013-04-25 20:54:00,
2013-04-25 16:59:00,84.5,69.1,30.16,WNW,285,3.6,7.0,60,0.00,CLR,,0.00,573.0,WeatherDisplay:10.37,2013-04-25 20:59:00,
2013-04-25 17:04:00,83.9,68.5,30.16,NNE,21,3.0,5.0,60,0.00,CLR,,0.00,550.0,WeatherDisplay:10.37,2013-04-25 21:04:00,
2013-04-25 17:09:00,84.3,67.9,30.16,SW,219,2.5,6.9,58,0.00,CLR,,0.00,533.0,WeatherDisplay:10.37,2013-04-25 21:09:00,
2013-04-25 17:14:00,84.2,68.8,30.16,SSE,158,2.7,5.8,60,0.00,CLR,,0.00,517.0,WeatherDisplay:10.37,2013-04-25 21:14:00,
2013-04-25 17:19:00,83.6,68.7,30.16,WSW,237,3.7,9.2,61,0.00,CLR,,0.00,497.0,WeatherDisplay:10.37,2013-04-25 21:19:00,
2013-04-25 17:24:00,83.5,68.6,30.16,WNW,283,3.4,5.8,61,0.00,CLR,,0.00,455.0,WeatherDisplay:10.37,2013-04-25 21:24:00,
2013-04-25 17:29:00,83.0,68.6,30.16,NW,312,4.1,9.2,62,0.00,CLR,,0.00,487.0,WeatherDisplay:10.37,2013-04-25 21:29:00,
2013-04-25 17:34:00,82.5,68.6,30.16,NNE,20,4.6,9.0,63,0.00,CLR,,0.00,408.0,WeatherDisplay:10.37,2013-04-25 21:34:00,
2013-04-25 17:39:00,81.9,68.5,30.15,NNE,16,3.7,6.9,64,0.00,CLR,,0.00,367.0,WeatherDisplay:10.37,2013-04-25 21:39:00,
2013-04-25 17:44:00,81.8,68.9,30.16,WSW,244,2.7,6.9,65,0.00,CLR,,0.00,364.0,WeatherDisplay:10.37,2013-04-25 21:44:00,
2013-04-25 17:49:00,82.4,69.0,30.16,NNW,346,0.4,1.2,64,0.00,CLR,,0.00,359.0,WeatherDisplay:10.37,2013-04-25 21:49:00,
2013-04-25 17:54:00,81.6,69.1,30.16,NNW,343,1.9,4.6,66,0.00,CLR,,0.00,316.0,WeatherDisplay:10.37,2013-04-25 21:54:00,
2013-04-25 17:59:00,80.4,68.9,30.16,NNW,337,5.3,8.1,68,0.00,CLR,,0.00,195.0,WeatherDisplay:10.37,2013-04-25 21:59:00,
2013-04-25 18:04:00,79.9,69.2,30.16,NW,306,5.0,8.1,70,0.00,CLR,,0.00,381.0,WeatherDisplay:10.37,2013-04-25 22:04:00,
2013-04-25 18:09:00,80.1,69.4,30.15,SW,229,2.2,4.6,70,0.00,CLR,,0.00,323.0,WeatherDisplay:10.37,2013-04-25 22:09:00,
2013-04-25 18:14:00,80.3,69.6,30.15,NNW,333,1.3,5.0,70,0.00,CLR,,0.00,334.0,WeatherDisplay:10.37,2013-04-25 22:14:00,
2013-04-25 18:19:00,80.2,69.5,30.15,NE,53,3.9,9.2,70,0.00,SCT,,0.00,139.0,WeatherDisplay:10.37,2013-04-25 22:19:00,
2013-04-25 18:24:00,79.4,68.8,30.16,WNW,302,3.0,8.1,70,0.00,BKN,,0.00,116.0,WeatherDisplay:10.37,2013-04-25 22:24:00,
2013-04-25 18:29:00,79.1,69.3,30.16,North,9,0.9,3.5,72,0.00,FEW,,0.00,207.0,WeatherDisplay:10.37,2013-04-25 22:29:00,
2013-04-25 18:34:00,79.2,69.4,30.16,North,355,2.1,3.5,72,0.00,CLR,,0.00,301.0,WeatherDisplay:10.37,2013-04-25 22:34:00,
2013-04-25 18:39:00,79.3,69.5,30.16,North,355,3.2,10.4,72,0.00,CLR,,0.00,276.0,WeatherDisplay:10.37,2013-04-25 22:39:00,
2013-04-25 18:44:00,79.6,69.8,30.16,NE,40,1.3,5.8,72,0.00,FEW,,0.00,243.0,WeatherDisplay:10.37,2013-04-25 22:44:00,
2013-04-25 18:49:00,79.1,69.3,30.16,North,355,2.6,5.0,72,0.00,SCT,,0.00,172.0,WeatherDisplay:10.37,2013-04-25 22:49:00,
2013-04-25 18:54:00,78.9,69.5,30.16,NNE,23,0.6,2.3,73,0.00,BKN,,0.00,63.0,WeatherDisplay:10.37,2013-04-25 22:54:00,
2013-04-25 18:59:00,78.5,69.1,30.16,NNW,340,0.7,2.3,73,0.00,BKN,,0.00,40.0,WeatherDisplay:10.37,2013-04-25 22:59:00,
2013-04-25 19:04:00,77.8,68.8,30.16,NNW,342,4.6,7.0,74,0.00,BKN,,0.00,42.0,WeatherDisplay:10.37,2013-04-25 23:04:00,
2013-04-25 19:09:00,77.4,68.9,30.16,ESE,118,1.4,3.5,75,0.00,BKN,,0.00,54.0,WeatherDisplay:10.37,2013-04-25 23:09:00,
2013-04-25 19:14:00,77.5,68.9,30.16,West,267,1.3,4.0,75,0.00,BKN,,0.00,53.0,WeatherDisplay:10.37,2013-04-25 23:14:00,
2013-04-25 19:19:00,77.3,68.8,30.16,WSW,254,0.8,2.0,75,0.00,BKN,,0.00,56.0,WeatherDisplay:10.37,2013-04-25 23:19:00,
2013-04-25 19:24:00,77.2,68.7,30.16,West,267,0.3,2.3,75,0.00,BKN,,0.00,58.0,WeatherDisplay:10.37,2013-04-25 23:24:00,
2013-04-25 19:29:00,77.1,68.6,30.16,West,274,0.9,3.5,75,0.00,BKN,,0.00,49.0,WeatherDisplay:10.37,2013-04-25 23:29:00,
2013-04-25 19:34:00,77.1,67.8,30.16,NNE,24,5.1,8.1,73,0.00,BKN,,0.00,39.0,WeatherDisplay:10.37,2013-04-25 23:34:00,
2013-04-25 19:39:00,76.8,67.5,30.16,NW,326,0.9,4.0,73,0.00,,,0.00,26.0,WeatherDisplay:10.37,2013-04-25 23:39:00,
2013-04-25 19:44:00,76.5,67.2,30.16,North,10,1.5,4.0,73,0.00,,,0.00,19.0,WeatherDisplay:10.37,2013-04-25 23:44:00,
2013-04-25 19:49:00,76.3,67.0,30.17,NNW,340,1.1,4.0,73,0.00,,,0.00,12.0,WeatherDisplay:10.37,2013-04-25 23:49:00,
2013-04-25 19:54:00,76.1,67.2,30.17,West,266,2.3,5.0,74,0.00,,,0.00,7.0,WeatherDisplay:10.37,2013-04-25 23:54:00,
2013-04-25 19:59:00,76.0,67.5,30.17,West,275,0.7,3.5,75,0.00,,,0.00,0.0,WeatherDisplay:10.37,2013-04-25 23:59:00,
2013-04-25 20:04:00,75.7,67.2,30.17,WNW,286,0.7,2.3,75,0.00,,,0.00,0.0,WeatherDisplay:10.37,2013-04-26 00:04:00,
2013-04-25 20:09:00,75.5,67.4,30.17,North,355,0.3,1.2,76,0.00,,,0.00,0.0,WeatherDisplay:10.37,2013-04-26 00:09:00,
2013-04-25 20:14:00,75.4,66.9,30.17,NNW,344,2.2,4.6,75,0.00,,,0.00,0.0,WeatherDisplay:10.37,2013-04-26 00:14:00,
2013-04-25 20:19:00,75.3,66.4,30.17,North,355,2.2,3.5,74,0.00,,,0.00,0.0,WeatherDisplay:10.37,2013-04-26 00:19:00,
2013-04-25 20:24:00,75.3,66.0,30.17,North,360,0.5,2.3,73,0.00,,,0.00,0.0,WeatherDisplay:10.37,2013-04-26 00:24:00,
2013-04-25 20:29:00,75.1,66.2,30.17,NW,326,2.0,4.0,74,0.00,,,0.00,0.0,WeatherDisplay:10.37,2013-04-26 00:29:00,
2013-04-25 20:34:00,74.9,66.1,30.17,NNW,340,1.5,3.5,74,0.00,,,0.00,0.0,WeatherDisplay:10.37,2013-04-26 00:34:00,
2013-04-25 20:39:00,74.8,66.0,30.18,North,355,1.9,4.6,74,0.00,,,0.00,0.0,WeatherDisplay:10.37,2013-04-26 00:39:00,
2013-04-25 20:44:00,74.7,65.9,30.18,North,355,3.3,4.6,74,0.00,,,0.00,0.0,WeatherDisplay:10.37,2013-04-26 00:44:00,
2013-04-25 20:49:00,74.5,65.7,30.18,North,360,1.6,4.0,74,0.00,,,0.00,0.0,WeatherDisplay:10.37,2013-04-26 00:49:00,
2013-04-25 20:54:00,74.4,66.0,30.18,North,11,2.2,4.0,75,0.00,,,0.00,0.0,WeatherDisplay:10.37,2013-04-26 00:54:00,
2013-04-25 20:59:00,74.3,65.5,30.18,NNE,15,4.7,6.0,74,0.00,,,0.00,0.0,WeatherDisplay:10.37,2013-04-26 00:59:00,
2013-04-25 21:04:00,74.2,65.4,30.18,North,360,3.6,5.8,74,0.00,,,0.00,0.0,WeatherDisplay:10.37,2013-04-26 01:04:00,
2013-04-25 21:09:00,74.1,65.3,30.18,North,355,0.7,3.5,74,0.00,,,0.00,0.0,WeatherDisplay:10.37,2013-04-26 01:09:00,
2013-04-25 21:14:00,74.0,65.6,30.18,North,350,2.6,4.6,75,0.00,,,0.00,0.0,WeatherDisplay:10.37,2013-04-26 01:14:00,
2013-04-25 21:19:00,73.9,65.5,30.19,North,355,1.5,3.5,75,0.00,,,0.00,0.0,WeatherDisplay:10.37,2013-04-26 01:19:00,
2013-04-25 21:24:00,73.8,65.4,30.19,NNW,346,0.4,2.3,75,0.00,,,0.00,0.0,WeatherDisplay:10.37,2013-04-26 01:24:00,
2013-04-25 21:29:00,73.8,65.4,30.19,NNE,29,1.7,4.0,75,0.00,,,0.00,0.0,WeatherDisplay:10.37,2013-04-26 01:29:00,
2013-04-25 21:34:00,73.7,65.7,30.19,NE,44,1.5,3.5,76,0.00,,,0.00,0.0,WeatherDisplay:10.37,2013-04-26 01:34:00,
2013-04-25 21:39:00,73.7,65.7,30.20,North,5,0.6,3.5,76,0.00,,,0.00,0.0,WeatherDisplay:10.37,2013-04-26 01:39:00,
2013-04-25 21:44:00,73.6,65.6,30.20,NNW,337,0.1,1.2,76,0.00,,,0.00,0.0,WeatherDisplay:10.37,2013-04-26 01:44:00,
2013-04-25 21:49:00,73.5,65.5,30.20,North,355,1.3,3.5,76,0.00,,,0.00,0.0,WeatherDisplay:10.37,2013-04-26 01:49:00,
2013-04-25 21:54:00,73.5,65.8,30.20,North,355,0.8,3.5,77,0.00,,,0.00,0.0,WeatherDisplay:10.37,2013-04-26 01:54:00,
2013-04-25 21:59:00,73.3,65.7,30.20,North,349,1.8,3.5,77,0.00,,,0.00,0.0,WeatherDisplay:10.37,2013-04-26 01:59:00,
2013-04-25 22:04:00,73.3,65.7,30.20,NNW,342,2.0,3.5,77,0.00,CLR,,0.00,0.0,WeatherDisplay:10.37,2013-04-26 02:04:00,
2013-04-25 22:09:00,73.3,65.7,30.20,NNW,342,1.7,3.5,77,0.00,CLR,,0.00,0.0,WeatherDisplay:10.37,2013-04-26 02:09:00,
2013-04-25 22:14:00,73.3,66.0,30.20,NNW,342,1.3,3.5,78,0.00,CLR,,0.00,0.0,WeatherDisplay:10.37,2013-04-26 02:14:00,
2013-04-25 22:19:00,73.2,65.9,30.21,North,5,0.3,4.6,78,0.00,CLR,,0.00,0.0,WeatherDisplay:10.37,2013-04-26 02:19:00,
2013-04-25 22:24:00,73.2,65.9,30.21,North,355,1.7,3.5,78,0.00,CLR,,0.00,0.0,WeatherDisplay:10.37,2013-04-26 02:24:00,
2013-04-25 22:29:00,73.1,65.8,30.21,NNW,334,0.4,2.0,78,0.00,CLR,,0.00,0.0,WeatherDisplay:10.37,2013-04-26 02:29:00,
2013-04-25 22:34:00,73.0,66.1,30.21,NW,323,2.4,3.5,79,0.00,CLR,,0.00,0.0,WeatherDisplay:10.37,2013-04-26 02:34:00,
2013-04-25 22:39:00,72.9,66.0,30.21,North,355,1.5,2.3,79,0.00,CLR,,0.00,0.0,WeatherDisplay:10.37,2013-04-26 02:39:00,
2013-04-25 22:44:00,72.7,66.2,30.21,NNW,328,1.5,3.5,80,0.00,CLR,,0.00,0.0,WeatherDisplay:10.37,2013-04-26 02:44:00,
2013-04-25 22:49:00,72.6,66.1,30.21,NNW,346,0.5,1.2,80,0.00,CLR,,0.00,0.0,WeatherDisplay:10.37,2013-04-26 02:49:00,
2013-04-25 22:54:00,72.6,66.1,30.21,North,355,1.9,3.5,80,0.00,CLR,,0.00,0.0,WeatherDisplay:10.37,2013-04-26 02:54:00,
2013-04-25 22:59:00,72.5,66.3,30.21,NNW,339,0.8,3.5,81,0.00,CLR,,0.00,0.0,WeatherDisplay:10.37,2013-04-26 02:59:00,
2013-04-25 23:04:00,72.4,66.2,30.21,NNW,346,0.7,2.3,81,0.00,,,0.00,0.0,WeatherDisplay:10.37,2013-04-26 03:04:00,
2013-04-25 23:09:00,72.3,66.1,30.21,NE,41,1.3,1.3,81,0.00,,,0.00,0.0,WeatherDisplay:10.37,2013-04-26 03:09:00,
2013-04-25 23:14:00,72.3,66.1,30.21,NNE,12,1.3,3.5,81,0.00,,,0.00,0.0,WeatherDisplay:10.37,2013-04-26 03:14:00,
2013-04-25 23:19:00,72.4,66.2,30.21,North,355,2.3,3.5,81,0.00,,,0.00,0.0,WeatherDisplay:10.37,2013-04-26 03:19:00,
2013-04-25 23:24:00,72.4,66.2,30.21,NNW,342,2.6,3.5,81,0.00,,,0.00,0.0,WeatherDisplay:10.37,2013-04-26 03:24:00,
2013-04-25 23:29:00,72.4,66.2,30.21,NNW,341,0.4,3.5,81,0.00,,,0.00,0.0,WeatherDisplay:10.37,2013-04-26 03:29:00,
2013-04-25 23:34:00,72.4,66.2,30.21,NW,322,1.6,2.3,81,0.00,,,0.00,0.0,WeatherDisplay:10.37,2013-04-26 03:34:00,
2013-04-25 23:39:00,72.4,66.2,30.21,North,355,1.0,3.5,81,0.00,,,0.00,0.0,WeatherDisplay:10.37,2013-04-26 03:39:00,
2013-04-25 23:44:00,72.3,66.1,30.21,North,360,1.2,2.3,81,0.00,,,0.00,0.0,WeatherDisplay:10.37,2013-04-26 03:44:00,
2013-04-25 23:49:00,72.2,66.0,30.21,North,5,2.0,3.5,81,0.00,,,0.00,0.0,WeatherDisplay:10.37,2013-04-26 03:49:00,
2013-04-25 23:54:00,72.2,66.4,30.21,NNE,12,0.5,2.3,82,0.00,,,0.00,0.0,WeatherDisplay:10.37,2013-04-26 03:54:00,
2013-04-25 23:59:00,72.3,66.5,30.22,ENE,78,1.8,3.5,82,0.00,,,0.00,0.0,WeatherDisplay:10.37,2013-04-26 03:59:00,